createdAt,value
2018-08-04T00:02:13.153Z,70.10
2018-08-04T00:07:16.637Z,70.20
2018-08-04T00:12:20.198Z,70.10
2018-08-04T00:17:22.858Z,70.20
2018-08-04T00:22:26.104Z,70.40
2018-08-04T00:27:28.663Z,70.60
2018-08-04T00:32:31.261Z,71.00
2018-08-04T00:37:33.846Z,71.30
2018-08-04T00:42:36.379Z,71.90
2018-08-04T00:47:39.850Z,71.40
2018-08-04T00:52:42.463Z,71.40
2018-08-04T00:57:45.132Z,72.00
2018-08-04T01:02:47.773Z,71.90
2018-08-04T01:07:51.166Z,72.50
2018-08-04T01:12:53.734Z,72.40
2018-08-04T01:17:56.269Z,72.90
2018-08-04T01:22:58.827Z,72.90
2018-08-04T01:28:01.524Z,72.80
2018-08-04T01:33:04.023Z,72.80
2018-08-04T01:38:06.573Z,73.00
2018-08-04T01:43:09.171Z,73.70
2018-08-04T01:48:11.715Z,73.40
2018-08-04T01:53:14.245Z,73.60
2018-08-04T01:58:16.775Z,74.00
2018-08-04T02:03:19.290Z,73.60
2018-08-04T02:08:21.868Z,74.10
2018-08-04T02:13:25.146Z,74.50
2018-08-04T02:18:28.657Z,74.60
2018-08-04T02:23:31.292Z,74.80
2018-08-04T02:28:33.861Z,74.80
2018-08-04T02:33:36.535Z,74.90
2018-08-04T02:38:40.113Z,75.30
2018-08-04T02:43:42.631Z,75.10
2018-08-04T02:48:45.179Z,75.20
2018-08-04T02:53:48.392Z,75.60
2018-08-04T02:58:51.761Z,75.80
2018-08-04T03:03:54.362Z,75.80
2018-08-04T03:08:56.921Z,75.10
2018-08-04T03:13:59.572Z,75.30
2018-08-04T03:19:02.896Z,76.30
2018-08-04T03:24:05.605Z,75.50
2018-08-04T03:29:08.246Z,75.40
2018-08-04T03:34:10.818Z,75.50
2018-08-04T03:39:14.151Z,75.80
2018-08-04T03:44:16.868Z,76.40
2018-08-04T03:49:19.587Z,75.50
2018-08-04T03:54:22.139Z,75.60
2018-08-04T03:59:25.481Z,76.50
2018-08-04T04:04:28.091Z,75.70
2018-08-04T04:09:30.756Z,75.50
2018-08-04T04:14:33.358Z,75.90
2018-08-04T04:19:35.913Z,75.70
2018-08-04T04:24:39.102Z,76.20
2018-08-04T04:29:41.694Z,76.20
2018-08-04T04:34:44.302Z,76.30
2018-08-04T04:39:46.818Z,76.60
2018-08-04T04:44:49.401Z,76.70
2018-08-04T04:49:51.986Z,76.90
2018-08-04T04:54:54.535Z,76.80
2018-08-04T04:59:57.081Z,76.80
2018-08-04T05:04:59.611Z,76.50
2018-08-04T05:10:02.207Z,76.50
2018-08-04T05:15:04.798Z,76.70
2018-08-04T05:20:07.317Z,76.80
2018-08-04T05:25:09.897Z,76.40
2018-08-04T05:30:12.662Z,76.60
2018-08-04T05:35:16.005Z,77.00
2018-08-04T05:40:18.609Z,76.90
2018-08-04T05:45:21.171Z,76.60
2018-08-04T05:50:23.693Z,76.50
2018-08-04T05:55:26.230Z,76.40
2018-08-04T06:00:28.787Z,76.50
2018-08-04T06:05:31.826Z,76.50
2018-08-04T06:10:34.696Z,76.10
2018-08-04T06:15:37.502Z,76.60
2018-08-04T06:20:40.326Z,76.00
2018-08-04T06:25:43.143Z,76.00
2018-08-04T06:30:45.724Z,76.00
2018-08-04T06:35:48.380Z,75.10
2018-08-04T06:40:51.845Z,75.50
2018-08-04T06:45:54.435Z,75.90
2018-08-04T06:50:57.032Z,75.80
2018-08-04T06:55:59.566Z,75.60
2018-08-04T07:01:02.249Z,75.00
2018-08-04T07:06:04.844Z,75.10
2018-08-04T07:11:08.240Z,74.00
2018-08-04T07:16:10.765Z,73.90
2018-08-04T07:21:13.465Z,73.60
2018-08-04T07:26:16.746Z,72.70
2018-08-04T07:36:34.644Z,72.20
2018-08-04T07:41:37.441Z,72.20
2018-08-04T07:46:40.076Z,71.90
2018-08-04T07:51:42.747Z,71.70
2018-08-04T07:56:46.009Z,71.50
2018-08-04T08:01:50.859Z,71.50
2018-08-04T08:06:54.619Z,71.00
2018-08-04T08:11:58.229Z,71.00
2018-08-04T08:17:01.390Z,70.70
2018-08-04T08:22:05.388Z,70.30
2018-08-04T08:27:08.026Z,69.80
2018-08-04T08:32:11.495Z,69.80
2018-08-04T08:37:15.139Z,70.20
2018-08-04T08:42:17.804Z,70.10
2018-08-04T08:47:21.105Z,70.80
2018-08-04T08:52:23.584Z,69.40
2018-08-04T08:57:27.106Z,68.40
2018-08-04T09:02:29.949Z,67.40
2018-08-04T09:07:32.785Z,66.10
2018-08-04T09:12:35.524Z,63.50
2018-08-04T09:17:39.109Z,63.40
2018-08-04T09:27:52.270Z,60.90
2018-08-04T09:32:55.361Z,60.80
2018-08-04T09:37:58.359Z,60.50
2018-08-04T09:43:01.798Z,58.60
2018-08-04T09:48:04.600Z,58.50
2018-08-04T09:53:08.011Z,57.20
2018-08-04T09:58:10.666Z,56.10
2018-08-04T10:03:13.450Z,56.60
2018-08-04T10:08:17.906Z,54.60
2018-08-04T10:13:21.397Z,54.80
2018-08-04T10:18:24.219Z,54.70
2018-08-04T10:23:27.633Z,53.60
2018-08-04T10:28:30.978Z,54.50
2018-08-04T10:33:33.606Z,54.80
2018-08-04T10:38:36.382Z,53.80
2018-08-04T10:43:38.808Z,53.60
2018-08-04T10:48:41.300Z,51.90
2018-08-04T10:53:43.785Z,50.30
2018-08-04T10:58:47.036Z,50.70
2018-08-04T11:03:49.579Z,50.70
2018-08-04T11:08:52.029Z,51.80
2018-08-04T11:13:54.512Z,51.10
2018-08-04T11:18:57.209Z,50.30
2018-08-04T11:24:00.731Z,51.20
2018-08-04T11:29:03.326Z,52.40
2018-08-04T11:34:06.021Z,53.20
2018-08-04T11:39:09.000Z,53.00
2018-08-04T11:44:11.637Z,53.50
2018-08-04T11:49:14.233Z,53.50
2018-08-04T11:54:17.801Z,53.10
2018-08-04T11:59:20.639Z,53.10
2018-08-04T12:04:24.110Z,53.30
2018-08-04T12:09:28.581Z,51.60
2018-08-04T12:14:31.387Z,51.50
2018-08-04T12:19:34.153Z,51.50
2018-08-04T12:24:36.801Z,52.00
2018-08-04T12:29:39.719Z,52.20
2018-08-04T12:34:42.517Z,53.10
2018-08-04T12:39:45.363Z,53.70
2018-08-04T12:44:48.071Z,53.40
2018-08-04T12:49:50.681Z,52.70
2018-08-04T12:54:53.623Z,53.10
2018-08-04T12:59:56.255Z,52.40
2018-08-04T13:04:58.890Z,52.40
2018-08-04T13:10:02.574Z,53.20
2018-08-04T13:15:05.989Z,54.00
2018-08-04T13:20:08.595Z,53.90
2018-08-04T13:25:11.438Z,53.80
2018-08-04T13:30:13.929Z,55.00
2018-08-04T13:35:16.500Z,55.40
2018-08-04T13:40:18.983Z,54.70
2018-08-04T13:45:21.468Z,54.70
2018-08-04T13:50:23.979Z,53.80
2018-08-04T13:55:26.464Z,53.50
2018-08-04T14:00:28.957Z,52.80
2018-08-04T14:05:31.444Z,52.50
2018-08-04T14:10:33.928Z,51.10
2018-08-04T14:15:36.408Z,51.50
2018-08-04T14:20:38.966Z,51.10
2018-08-04T14:25:41.468Z,50.90
2018-08-04T14:30:43.963Z,50.30
2018-08-04T14:35:46.462Z,51.30
2018-08-04T14:40:48.971Z,51.60
2018-08-04T14:45:51.449Z,52.50
2018-08-04T14:50:53.935Z,53.30
2018-08-04T14:55:56.425Z,53.30
2018-08-04T15:00:58.909Z,53.40
2018-08-04T15:06:01.404Z,53.60
2018-08-04T15:11:03.896Z,53.50
2018-08-04T15:16:06.372Z,53.90
2018-08-04T15:21:08.872Z,53.30
2018-08-04T15:26:11.356Z,54.10
2018-08-04T15:31:13.844Z,53.70
2018-08-04T15:36:16.333Z,53.90
2018-08-04T15:41:18.822Z,53.70
2018-08-04T15:46:21.300Z,54.20
2018-08-04T15:51:23.784Z,52.40
2018-08-04T15:56:26.269Z,51.70
2018-08-04T16:01:28.748Z,51.50
2018-08-04T16:06:31.228Z,51.30
2018-08-04T16:11:33.709Z,50.70
2018-08-04T16:16:36.213Z,51.40
2018-08-04T16:21:38.668Z,51.30
2018-08-04T16:26:41.156Z,50.20
2018-08-04T16:31:43.652Z,50.30
2018-08-04T16:36:46.216Z,51.10
2018-08-04T16:41:48.739Z,50.90
2018-08-04T16:46:51.185Z,51.60
2018-08-04T16:51:53.660Z,52.40
2018-08-04T16:56:56.153Z,53.60
2018-08-04T17:01:58.632Z,54.10
2018-08-04T17:07:01.108Z,53.80
2018-08-04T17:12:03.604Z,54.10
2018-08-04T17:17:06.081Z,54.30
2018-08-04T17:22:08.676Z,54.50
2018-08-04T17:27:11.324Z,55.00
2018-08-04T17:32:14.275Z,54.90
2018-08-04T17:37:16.954Z,56.00
2018-08-04T17:42:19.472Z,56.50
2018-08-04T17:47:22.040Z,56.90
2018-08-04T17:52:25.016Z,55.30
2018-08-04T17:57:28.147Z,55.00
2018-08-04T18:02:31.478Z,56.90
2018-08-04T18:07:35.281Z,56.90
2018-08-04T18:12:37.807Z,57.70
2018-08-04T18:17:40.459Z,57.90
2018-08-04T18:22:42.942Z,58.40
2018-08-04T18:27:45.428Z,57.80
2018-08-04T18:32:47.943Z,56.70
2018-08-04T18:37:50.470Z,57.00
2018-08-04T18:42:53.389Z,57.90
2018-08-04T18:47:55.910Z,58.80
2018-08-04T18:52:58.631Z,59.20
2018-08-04T18:58:01.330Z,59.20
2018-08-04T19:03:03.922Z,59.50
2018-08-04T19:08:07.034Z,60.00
2018-08-04T19:13:10.230Z,61.50
2018-08-04T19:18:13.020Z,62.50
2018-08-04T19:23:17.033Z,62.20
2018-08-04T19:28:19.583Z,62.10
2018-08-04T19:33:22.336Z,62.20
2018-08-04T19:38:25.241Z,62.10
2018-08-04T19:43:29.392Z,62.50
2018-08-04T19:48:32.095Z,62.40
2018-08-04T19:53:34.640Z,62.70
2018-08-04T19:58:37.381Z,63.10
2018-08-04T20:03:40.158Z,63.40
2018-08-04T20:08:42.868Z,63.60
2018-08-04T20:13:45.697Z,63.60
2018-08-04T20:21:57.756Z,63.40
2018-08-04T20:27:01.289Z,63.80
2018-08-04T20:32:05.205Z,64.30
2018-08-04T20:37:08.862Z,64.80
2018-08-04T20:42:12.467Z,65.10
2018-08-04T20:47:15.999Z,65.10
2018-08-04T20:52:19.346Z,65.40
2018-08-04T20:57:22.923Z,65.70
2018-08-04T21:02:27.583Z,66.10
2018-08-04T21:07:31.253Z,66.70
2018-08-04T21:17:38.297Z,66.80
2018-08-04T21:22:42.839Z,66.80
2018-08-04T21:27:49.154Z,67.20
2018-08-04T21:32:54.991Z,67.20
2018-08-04T21:38:03.353Z,67.70
2018-08-04T21:43:09.910Z,68.00
2018-08-04T21:48:13.832Z,68.40
2018-08-04T21:53:20.913Z,68.50
2018-08-04T21:58:28.620Z,68.70
2018-08-04T22:03:38.661Z,69.30
2018-08-04T22:08:56.141Z,69.20
2018-08-04T22:14:01.401Z,69.40
2018-08-04T22:19:07.855Z,69.50
2018-08-04T22:29:19.877Z,70.10
2018-08-04T22:34:24.244Z,70.30
2018-08-04T22:39:31.082Z,70.30
2018-08-04T22:44:44.415Z,70.40
2018-08-04T22:49:50.189Z,70.60
2018-08-04T22:54:56.301Z,71.10
2018-08-04T23:05:07.830Z,71.00
2018-08-04T23:10:12.159Z,71.20
2018-08-04T23:15:17.416Z,71.00
2018-08-04T23:20:22.599Z,71.40
2018-08-04T23:25:26.943Z,71.60
2018-08-04T23:30:34.432Z,71.60
2018-08-04T23:40:51.298Z,72.00
2018-08-04T23:45:57.888Z,71.90
2018-08-04T23:51:06.728Z,71.90
2018-08-04T23:56:15.273Z,72.00
